Hauptseite
METAR-TAF:

METAR-TAF

Flughäfen :

Flughafen Bagdad

Bagdad, Irak

Breite: 33-15-45N, Länge: 44-14-04E, Höhe: 35 m

Beobachtung

Neuester Wetterbericht von vor 21 Minuten, um 20:00 UTC
Wind 3 kt aus West
Temperatur 12°C
Luftfeuchtigkeit 94%
Luftdruck 1017 hPa
Sichtweite: 7000 m
Aufgelockert bewölkt in der Höhe von 4000 ft

METAR: ORBI 072000Z 27003KT 7000 SCT040 12/11 Q1017

Zeit: 23:21 (20:21 UTC)

Prognose

Neuester Wetterbericht von vor 4 Stunden und 21 Minuten, um 16:00 UTC
Gültige Prognose vom 07 um 18 UTC bis 08 um 18 UTC
Wind 12 kt aus West
Sichtweite: 8000 m
Leicht bewölkt in der Höhe von 2500 ft, Kumulonimbus.
Aufgelockert bewölkt in der Höhe von 3000 ft
Übergehend zu
vom 08 um 02 UTC bis 08 um 04 UTC

TAF: ORBI 071600Z 0718/0818 28012KT 8000 -TSSHRA FEW025CB SCT030 BECMG 0802/0804 NSC

Wetterbeobachtungen und Prognosen von mehr als 4000 Flughäfen (METAR und TAF Bericht).

Die verfügbaren Stationen werden durch gelbe und rote Markierungen auf der Karte dargestellt.

Führen Sie die Maus auf sie, um den Namen der Station zu sehen.

Darauf klicken, um die Beobachtung von Wetterbeobachtungen und Prognosen zu sehen.

Um die Karte zu ändern : klicken Sie auf den grünen Tasten mit einem schwarzen Kreuz Zum Vergrößern, auf den grünen Button mit einem Gedankenstrich zu verkleinern, oder auf die grünen Pfeile für benachbarte Karten.


METAR-TAF: